sensor_id;sensor_type;location;lat;lon;timestamp;P1;durP1;ratioP1;P2;durP2;ratioP2
21876;SDS011;11103;43.788;23.710;2022-09-09T00:18:28;19.63;;;12.77;;
21876;SDS011;11103;43.788;23.710;2022-09-09T00:21:06;17.93;;;13.27;;
21876;SDS011;11103;43.788;23.710;2022-09-09T00:24:00;15.57;;;12.57;;
21876;SDS011;11103;43.788;23.710;2022-09-09T00:26:37;19.67;;;13.27;;
21876;SDS011;11103;43.788;23.710;2022-09-09T00:29:29;17.37;;;13.00;;
21876;SDS011;11103;43.788;23.710;2022-09-09T00:32:05;16.53;;;13.10;;
21876;SDS011;11103;43.788;23.710;2022-09-09T00:34:39;20.53;;;13.60;;
21876;SDS011;11103;43.788;23.710;2022-09-09T00:37:18;15.80;;;12.10;;
21876;SDS011;11103;43.788;23.710;2022-09-09T00:39:46;18.40;;;12.93;;
21876;SDS011;11103;43.788;23.710;2022-09-09T00:45:01;18.77;;;13.07;;
21876;SDS011;11103;43.788;23.710;2022-09-09T00:47:52;17.87;;;13.90;;
21876;SDS011;11103;43.788;23.710;2022-09-09T00:56:09;19.43;;;13.43;;
21876;SDS011;11103;43.788;23.710;2022-09-09T00:58:40;19.43;;;14.40;;
21876;SDS011;11103;43.788;23.710;2022-09-09T01:01:11;22.07;;;14.07;;
21876;SDS011;11103;43.788;23.710;2022-09-09T01:17:02;18.57;;;13.50;;
21876;SDS011;11103;43.788;23.710;2022-09-09T01:19:40;21.53;;;14.70;;
21876;SDS011;11103;43.788;23.710;2022-09-09T01:28:03;20.43;;;14.07;;
21876;SDS011;11103;43.788;23.710;2022-09-09T01:30:34;22.30;;;13.93;;
21876;SDS011;11103;43.788;23.710;2022-09-09T01:33:01;26.00;;;14.40;;
21876;SDS011;11103;43.788;23.710;2022-09-09T01:38:31;20.43;;;13.07;;
21876;SDS011;11103;43.788;23.710;2022-09-09T01:40:58;21.43;;;14.07;;
21876;SDS011;11103;43.788;23.710;2022-09-09T01:43:24;20.83;;;13.73;;
21876;SDS011;11103;43.788;23.710;2022-09-09T01:45:52;23.40;;;13.03;;
21876;SDS011;11103;43.788;23.710;2022-09-09T01:48:21;18.90;;;12.53;;
21876;SDS011;11103;43.788;23.710;2022-09-09T01:50:48;18.23;;;13.27;;
21876;SDS011;11103;43.788;23.710;2022-09-09T01:53:14;18.90;;;13.60;;
21876;SDS011;11103;43.788;23.710;2022-09-09T01:55:42;24.10;;;14.03;;
21876;SDS011;11103;43.788;23.710;2022-09-09T02:00:54;19.90;;;13.57;;
21876;SDS011;11103;43.788;23.710;2022-09-09T02:03:27;21.67;;;14.40;;
21876;SDS011;11103;43.788;23.710;2022-09-09T02:08:47;23.87;;;14.93;;
21876;SDS011;11103;43.788;23.710;2022-09-09T02:11:15;16.63;;;13.40;;
21876;SDS011;11103;43.788;23.710;2022-09-09T02:13:43;20.80;;;13.63;;
21876;SDS011;11103;43.788;23.710;2022-09-09T02:19:16;21.73;;;14.27;;
21876;SDS011;11103;43.788;23.710;2022-09-09T02:21:49;17.20;;;13.47;;
21876;SDS011;11103;43.788;23.710;2022-09-09T02:24:16;16.23;;;13.87;;
21876;SDS011;11103;43.788;23.710;2022-09-09T02:26:42;16.27;;;13.30;;
21876;SDS011;11103;43.788;23.710;2022-09-09T02:29:13;16.73;;;13.13;;
21876;SDS011;11103;43.788;23.710;2022-09-09T02:31:43;17.73;;;13.70;;
21876;SDS011;11103;43.788;23.710;2022-09-09T02:34:11;16.27;;;13.30;;
21876;SDS011;11103;43.788;23.710;2022-09-09T02:36:38;16.27;;;12.97;;
21876;SDS011;11103;43.788;23.710;2022-09-09T02:39:08;17.53;;;13.37;;
21876;SDS011;11103;43.788;23.710;2022-09-09T02:41:36;15.97;;;13.67;;
21876;SDS011;11103;43.788;23.710;2022-09-09T02:44:14;20.23;;;13.53;;
21876;SDS011;11103;43.788;23.710;2022-09-09T02:52:14;20.63;;;14.20;;
21876;SDS011;11103;43.788;23.710;2022-09-09T02:54:41;17.30;;;11.97;;
21876;SDS011;11103;43.788;23.710;2022-09-09T02:59:37;18.67;;;13.83;;
21876;SDS011;11103;43.788;23.710;2022-09-09T03:02:04;22.27;;;15.17;;
21876;SDS011;11103;43.788;23.710;2022-09-09T03:04:31;16.33;;;13.13;;
21876;SDS011;11103;43.788;23.710;2022-09-09T03:06:57;19.20;;;13.07;;
21876;SDS011;11103;43.788;23.710;2022-09-09T03:09:23;18.13;;;13.60;;
21876;SDS011;11103;43.788;23.710;2022-09-09T03:11:49;19.30;;;13.67;;
21876;SDS011;11103;43.788;23.710;2022-09-09T03:14:15;17.13;;;13.63;;
21876;SDS011;11103;43.788;23.710;2022-09-09T03:16:41;17.37;;;12.63;;
21876;SDS011;11103;43.788;23.710;2022-09-09T03:19:08;16.03;;;12.63;;
21876;SDS011;11103;43.788;23.710;2022-09-09T03:21:33;16.97;;;13.57;;
21876;SDS011;11103;43.788;23.710;2022-09-09T03:23:59;19.07;;;12.63;;
21876;SDS011;11103;43.788;23.710;2022-09-09T03:26:25;24.10;;;16.97;;
21876;SDS011;11103;43.788;23.710;2022-09-09T03:28:50;18.80;;;13.40;;
21876;SDS011;11103;43.788;23.710;2022-09-09T03:31:16;17.67;;;14.07;;
21876;SDS011;11103;43.788;23.710;2022-09-09T03:33:43;20.27;;;14.67;;
21876;SDS011;11103;43.788;23.710;2022-09-09T03:36:08;23.83;;;16.30;;
21876;SDS011;11103;43.788;23.710;2022-09-09T03:38:33;21.07;;;16.00;;
21876;SDS011;11103;43.788;23.710;2022-09-09T03:40:59;20.33;;;14.93;;
21876;SDS011;11103;43.788;23.710;2022-09-09T03:43:27;25.10;;;15.07;;
21876;SDS011;11103;43.788;23.710;2022-09-09T03:45:53;19.23;;;13.73;;
21876;SDS011;11103;43.788;23.710;2022-09-09T03:48:22;18.90;;;13.53;;
21876;SDS011;11103;43.788;23.710;2022-09-09T03:50:50;17.77;;;14.17;;
21876;SDS011;11103;43.788;23.710;2022-09-09T03:53:18;16.53;;;13.73;;
21876;SDS011;11103;43.788;23.710;2022-09-09T03:55:48;21.47;;;14.43;;
21876;SDS011;11103;43.788;23.710;2022-09-09T03:58:17;24.77;;;16.33;;
21876;SDS011;11103;43.788;23.710;2022-09-09T04:00:47;21.73;;;15.50;;
21876;SDS011;11103;43.788;23.710;2022-09-09T04:03:19;22.90;;;14.30;;
21876;SDS011;11103;43.788;23.710;2022-09-09T04:05:44;29.07;;;16.23;;
21876;SDS011;11103;43.788;23.710;2022-09-09T04:08:16;24.20;;;14.87;;
21876;SDS011;11103;43.788;23.710;2022-09-09T04:10:41;20.77;;;14.67;;
21876;SDS011;11103;43.788;23.710;2022-09-09T04:13:06;22.97;;;14.97;;
21876;SDS011;11103;43.788;23.710;2022-09-09T04:15:33;21.40;;;15.63;;
21876;SDS011;11103;43.788;23.710;2022-09-09T04:17:59;18.80;;;14.13;;
21876;SDS011;11103;43.788;23.710;2022-09-09T04:20:25;25.40;;;15.43;;
21876;SDS011;11103;43.788;23.710;2022-09-09T04:22:51;18.43;;;14.20;;
21876;SDS011;11103;43.788;23.710;2022-09-09T04:25:16;18.57;;;13.07;;
21876;SDS011;11103;43.788;23.710;2022-09-09T04:27:52;17.53;;;13.80;;
21876;SDS011;11103;43.788;23.710;2022-09-09T04:30:19;20.93;;;14.63;;
21876;SDS011;11103;43.788;23.710;2022-09-09T04:32:46;17.80;;;14.17;;
21876;SDS011;11103;43.788;23.710;2022-09-09T04:35:13;19.27;;;13.77;;
21876;SDS011;11103;43.788;23.710;2022-09-09T04:37:39;18.87;;;14.57;;
21876;SDS011;11103;43.788;23.710;2022-09-09T04:40:05;17.97;;;13.53;;
21876;SDS011;11103;43.788;23.710;2022-09-09T04:42:35;19.83;;;13.50;;
21876;SDS011;11103;43.788;23.710;2022-09-09T04:45:01;25.27;;;13.10;;
21876;SDS011;11103;43.788;23.710;2022-09-09T04:47:27;17.67;;;14.17;;
21876;SDS011;11103;43.788;23.710;2022-09-09T04:49:52;19.80;;;14.10;;
21876;SDS011;11103;43.788;23.710;2022-09-09T04:52:19;19.53;;;13.63;;
21876;SDS011;11103;43.788;23.710;2022-09-09T04:54:45;16.60;;;13.43;;
21876;SDS011;11103;43.788;23.710;2022-09-09T04:57:11;18.20;;;13.80;;
21876;SDS011;11103;43.788;23.710;2022-09-09T04:59:37;18.53;;;14.20;;
21876;SDS011;11103;43.788;23.710;2022-09-09T05:02:04;16.73;;;13.93;;
21876;SDS011;11103;43.788;23.710;2022-09-09T05:06:58;17.43;;;13.40;;
21876;SDS011;11103;43.788;23.710;2022-09-09T05:09:24;15.73;;;13.37;;
21876;SDS011;11103;43.788;23.710;2022-09-09T05:11:49;18.43;;;13.43;;
21876;SDS011;11103;43.788;23.710;2022-09-09T05:14:15;17.53;;;13.23;;
21876;SDS011;11103;43.788;23.710;2022-09-09T05:16:41;19.30;;;12.73;;
21876;SDS011;11103;43.788;23.710;2022-09-09T05:21:50;16.03;;;10.80;;
21876;SDS011;11103;43.788;23.710;2022-09-09T05:24:15;15.20;;;12.37;;
21876;SDS011;11103;43.788;23.710;2022-09-09T05:26:41;18.17;;;12.07;;
21876;SDS011;11103;43.788;23.710;2022-09-09T05:29:07;16.10;;;12.20;;
21876;SDS011;11103;43.788;23.710;2022-09-09T05:31:33;15.57;;;11.53;;
21876;SDS011;11103;43.788;23.710;2022-09-09T05:33:58;17.77;;;10.63;;
21876;SDS011;11103;43.788;23.710;2022-09-09T05:36:24;13.87;;;10.50;;
21876;SDS011;11103;43.788;23.710;2022-09-09T05:38:50;19.47;;;12.23;;
21876;SDS011;11103;43.788;23.710;2022-09-09T05:41:16;14.23;;;10.87;;
21876;SDS011;11103;43.788;23.710;2022-09-09T05:43:42;13.67;;;11.77;;
21876;SDS011;11103;43.788;23.710;2022-09-09T05:46:18;20.03;;;11.97;;
21876;SDS011;11103;43.788;23.710;2022-09-09T05:48:45;13.27;;;11.03;;
21876;SDS011;11103;43.788;23.710;2022-09-09T05:51:13;13.57;;;10.03;;
21876;SDS011;11103;43.788;23.710;2022-09-09T05:53:40;15.10;;;10.70;;
21876;SDS011;11103;43.788;23.710;2022-09-09T05:56:07;16.70;;;11.50;;
21876;SDS011;11103;43.788;23.710;2022-09-09T05:58:35;18.23;;;11.50;;
21876;SDS011;11103;43.788;23.710;2022-09-09T06:01:05;16.30;;;12.13;;
21876;SDS011;11103;43.788;23.710;2022-09-09T06:03:35;14.37;;;11.17;;
21876;SDS011;11103;43.788;23.710;2022-09-09T06:06:02;13.27;;;11.50;;
21876;SDS011;11103;43.788;23.710;2022-09-09T06:08:30;14.27;;;10.57;;
21876;SDS011;11103;43.788;23.710;2022-09-09T06:11:03;15.30;;;11.43;;
21876;SDS011;11103;43.788;23.710;2022-09-09T06:13:30;15.60;;;11.00;;
21876;SDS011;11103;43.788;23.710;2022-09-09T06:15:56;13.67;;;10.90;;
21876;SDS011;11103;43.788;23.710;2022-09-09T06:18:22;14.53;;;11.30;;
21876;SDS011;11103;43.788;23.710;2022-09-09T06:20:58;14.30;;;11.07;;
21876;SDS011;11103;43.788;23.710;2022-09-09T06:23:31;13.80;;;10.63;;
21876;SDS011;11103;43.788;23.710;2022-09-09T06:26:19;12.90;;;10.57;;
21876;SDS011;11103;43.788;23.710;2022-09-09T06:28:48;16.43;;;10.77;;
21876;SDS011;11103;43.788;23.710;2022-09-09T06:31:15;18.00;;;10.77;;
21876;SDS011;11103;43.788;23.710;2022-09-09T06:33:54;17.37;;;10.43;;
21876;SDS011;11103;43.788;23.710;2022-09-09T06:36:21;14.33;;;10.47;;
21876;SDS011;11103;43.788;23.710;2022-09-09T06:38:48;14.67;;;10.67;;
21876;SDS011;11103;43.788;23.710;2022-09-09T06:41:14;14.27;;;10.40;;
21876;SDS011;11103;43.788;23.710;2022-09-09T06:43:43;14.50;;;9.90;;
21876;SDS011;11103;43.788;23.710;2022-09-09T06:46:10;12.77;;;9.47;;
21876;SDS011;11103;43.788;23.710;2022-09-09T06:48:40;14.17;;;10.30;;
21876;SDS011;11103;43.788;23.710;2022-09-09T06:51:13;15.40;;;9.80;;
21876;SDS011;11103;43.788;23.710;2022-09-09T06:53:43;14.43;;;10.17;;
21876;SDS011;11103;43.788;23.710;2022-09-09T06:58:36;12.93;;;9.90;;
21876;SDS011;11103;43.788;23.710;2022-09-09T07:01:03;13.77;;;9.73;;
21876;SDS011;11103;43.788;23.710;2022-09-09T07:03:32;15.07;;;10.00;;
21876;SDS011;11103;43.788;23.710;2022-09-09T07:05:58;16.90;;;10.50;;
21876;SDS011;11103;43.788;23.710;2022-09-09T07:08:24;16.00;;;10.17;;
21876;SDS011;11103;43.788;23.710;2022-09-09T07:10:50;15.73;;;9.47;;
21876;SDS011;11103;43.788;23.710;2022-09-09T07:13:19;14.33;;;9.40;;
21876;SDS011;11103;43.788;23.710;2022-09-09T07:15:50;12.80;;;9.97;;
21876;SDS011;11103;43.788;23.710;2022-09-09T07:18:16;16.47;;;10.67;;
21876;SDS011;11103;43.788;23.710;2022-09-09T07:20:41;15.40;;;9.67;;
21876;SDS011;11103;43.788;23.710;2022-09-09T07:23:07;13.57;;;9.73;;
21876;SDS011;11103;43.788;23.710;2022-09-09T07:25:33;12.67;;;10.13;;
21876;SDS011;11103;43.788;23.710;2022-09-09T07:27:59;12.37;;;9.47;;
21876;SDS011;11103;43.788;23.710;2022-09-09T07:30:24;13.77;;;9.43;;
21876;SDS011;11103;43.788;23.710;2022-09-09T07:32:55;12.23;;;8.97;;
21876;SDS011;11103;43.788;23.710;2022-09-09T07:35:22;12.53;;;9.57;;
21876;SDS011;11103;43.788;23.710;2022-09-09T07:37:47;14.87;;;10.47;;
21876;SDS011;11103;43.788;23.710;2022-09-09T07:40:13;15.47;;;9.63;;
21876;SDS011;11103;43.788;23.710;2022-09-09T07:42:38;12.23;;;9.57;;
21876;SDS011;11103;43.788;23.710;2022-09-09T07:45:10;14.53;;;9.70;;
21876;SDS011;11103;43.788;23.710;2022-09-09T07:47:35;11.60;;;9.20;;
21876;SDS011;11103;43.788;23.710;2022-09-09T07:50:00;12.53;;;8.97;;
21876;SDS011;11103;43.788;23.710;2022-09-09T07:52:26;10.63;;;8.77;;
21876;SDS011;11103;43.788;23.710;2022-09-09T07:54:52;11.10;;;8.77;;
21876;SDS011;11103;43.788;23.710;2022-09-09T07:57:17;14.47;;;10.17;;
21876;SDS011;11103;43.788;23.710;2022-09-09T07:59:43;14.83;;;8.97;;
21876;SDS011;11103;43.788;23.710;2022-09-09T08:02:09;13.00;;;8.80;;
21876;SDS011;11103;43.788;23.710;2022-09-09T08:04:35;14.87;;;10.07;;
21876;SDS011;11103;43.788;23.710;2022-09-09T08:07:02;12.67;;;9.10;;
21876;SDS011;11103;43.788;23.710;2022-09-09T08:09:28;14.47;;;9.30;;
21876;SDS011;11103;43.788;23.710;2022-09-09T08:11:56;13.63;;;10.20;;
21876;SDS011;11103;43.788;23.710;2022-09-09T08:14:22;11.10;;;9.30;;
21876;SDS011;11103;43.788;23.710;2022-09-09T08:16:48;13.27;;;8.83;;
21876;SDS011;11103;43.788;23.710;2022-09-09T08:19:15;10.77;;;8.50;;
21876;SDS011;11103;43.788;23.710;2022-09-09T08:21:42;12.43;;;9.53;;
21876;SDS011;11103;43.788;23.710;2022-09-09T08:24:09;13.07;;;8.97;;
21876;SDS011;11103;43.788;23.710;2022-09-09T08:26:37;18.13;;;9.00;;
21876;SDS011;11103;43.788;23.710;2022-09-09T08:29:05;14.43;;;9.23;;
21876;SDS011;11103;43.788;23.710;2022-09-09T08:31:39;15.50;;;8.33;;
21876;SDS011;11103;43.788;23.710;2022-09-09T08:34:08;13.60;;;9.17;;
21876;SDS011;11103;43.788;23.710;2022-09-09T08:36:36;14.30;;;9.03;;
21876;SDS011;11103;43.788;23.710;2022-09-09T08:39:04;15.80;;;9.10;;
21876;SDS011;11103;43.788;23.710;2022-09-09T08:55:24;11.57;;;7.97;;
21876;SDS011;11103;43.788;23.710;2022-09-09T08:57:54;14.77;;;7.90;;
21876;SDS011;11103;43.788;23.710;2022-09-09T09:00:22;13.23;;;8.60;;
21876;SDS011;11103;43.788;23.710;2022-09-09T09:08:46;10.77;;;8.30;;
21876;SDS011;11103;43.788;23.710;2022-09-09T09:11:22;19.10;;;9.10;;
21876;SDS011;11103;43.788;23.710;2022-09-09T09:13:52;10.60;;;9.17;;
21876;SDS011;11103;43.788;23.710;2022-09-09T09:16:44;18.03;;;9.00;;
21876;SDS011;11103;43.788;23.710;2022-09-09T09:19:17;13.07;;;9.57;;
21876;SDS011;11103;43.788;23.710;2022-09-09T09:21:44;11.23;;;9.27;;
21876;SDS011;11103;43.788;23.710;2022-09-09T09:24:19;11.80;;;9.03;;
21876;SDS011;11103;43.788;23.710;2022-09-09T09:26:47;16.53;;;9.37;;
21876;SDS011;11103;43.788;23.710;2022-09-09T09:29:13;11.07;;;8.10;;
21876;SDS011;11103;43.788;23.710;2022-09-09T09:31:45;14.00;;;8.37;;
21876;SDS011;11103;43.788;23.710;2022-09-09T09:34:20;11.57;;;8.87;;
21876;SDS011;11103;43.788;23.710;2022-09-09T09:36:52;16.80;;;8.30;;
21876;SDS011;11103;43.788;23.710;2022-09-09T09:39:22;14.13;;;8.53;;
21876;SDS011;11103;43.788;23.710;2022-09-09T09:41:49;9.43;;;7.93;;
21876;SDS011;11103;43.788;23.710;2022-09-09T09:47:07;16.37;;;8.60;;
21876;SDS011;11103;43.788;23.710;2022-09-09T09:49:38;12.27;;;8.67;;
21876;SDS011;11103;43.788;23.710;2022-09-09T09:52:04;14.90;;;9.43;;
21876;SDS011;11103;43.788;23.710;2022-09-09T09:54:32;16.80;;;9.50;;
21876;SDS011;11103;43.788;23.710;2022-09-09T09:57:12;15.43;;;9.03;;
21876;SDS011;11103;43.788;23.710;2022-09-09T09:59:41;11.90;;;8.37;;
21876;SDS011;11103;43.788;23.710;2022-09-09T10:04:40;11.83;;;8.10;;
21876;SDS011;11103;43.788;23.710;2022-09-09T10:10:20;15.83;;;8.37;;
21876;SDS011;11103;43.788;23.710;2022-09-09T10:13:05;19.50;;;8.27;;
21876;SDS011;11103;43.788;23.710;2022-09-09T10:19:01;16.33;;;9.00;;
21876;SDS011;11103;43.788;23.710;2022-09-09T10:27:18;22.67;;;9.10;;
21876;SDS011;11103;43.788;23.710;2022-09-09T10:35:10;12.87;;;8.27;;
21876;SDS011;11103;43.788;23.710;2022-09-09T10:37:47;17.97;;;9.47;;
21876;SDS011;11103;43.788;23.710;2022-09-09T10:48:30;10.93;;;8.63;;
21876;SDS011;11103;43.788;23.710;2022-09-09T10:53:46;16.57;;;9.13;;
21876;SDS011;11103;43.788;23.710;2022-09-09T10:56:22;11.67;;;8.63;;
21876;SDS011;11103;43.788;23.710;2022-09-09T11:01:52;13.80;;;8.70;;
21876;SDS011;11103;43.788;23.710;2022-09-09T11:04:32;11.97;;;8.33;;
21876;SDS011;11103;43.788;23.710;2022-09-09T11:07:09;17.10;;;9.70;;
21876;SDS011;11103;43.788;23.710;2022-09-09T11:09:41;12.20;;;8.70;;
21876;SDS011;11103;43.788;23.710;2022-09-09T11:12:15;11.07;;;9.00;;
21876;SDS011;11103;43.788;23.710;2022-09-09T11:14:46;12.67;;;8.53;;
21876;SDS011;11103;43.788;23.710;2022-09-09T11:17:20;9.97;;;8.17;;
21876;SDS011;11103;43.788;23.710;2022-09-09T11:19:53;12.53;;;8.43;;
21876;SDS011;11103;43.788;23.710;2022-09-09T11:22:27;12.83;;;8.67;;
21876;SDS011;11103;43.788;23.710;2022-09-09T11:25:10;10.73;;;9.07;;
21876;SDS011;11103;43.788;23.710;2022-09-09T11:28:02;12.63;;;8.27;;
21876;SDS011;11103;43.788;23.710;2022-09-09T11:38:29;10.83;;;7.87;;
21876;SDS011;11103;43.788;23.710;2022-09-09T11:41:07;11.17;;;7.43;;
21876;SDS011;11103;43.788;23.710;2022-09-09T11:43:53;11.10;;;8.17;;
21876;SDS011;11103;43.788;23.710;2022-09-09T11:46:32;11.70;;;8.20;;
21876;SDS011;11103;43.788;23.710;2022-09-09T11:49:04;13.37;;;7.87;;
21876;SDS011;11103;43.788;23.710;2022-09-09T11:51:31;11.37;;;7.83;;
21876;SDS011;11103;43.788;23.710;2022-09-09T11:53:59;15.40;;;8.43;;
21876;SDS011;11103;43.788;23.710;2022-09-09T11:56:45;12.10;;;7.97;;
21876;SDS011;11103;43.788;23.710;2022-09-09T11:59:21;24.60;;;9.37;;
21876;SDS011;11103;43.788;23.710;2022-09-09T12:01:54;11.00;;;8.70;;
21876;SDS011;11103;43.788;23.710;2022-09-09T12:06:52;14.03;;;7.97;;
21876;SDS011;11103;43.788;23.710;2022-09-09T12:12:05;16.60;;;9.27;;
21876;SDS011;11103;43.788;23.710;2022-09-09T12:14:43;13.37;;;8.87;;
21876;SDS011;11103;43.788;23.710;2022-09-09T12:17:21;13.07;;;8.53;;
21876;SDS011;11103;43.788;23.710;2022-09-09T12:25:57;12.03;;;8.10;;
21876;SDS011;11103;43.788;23.710;2022-09-09T12:33:50;9.37;;;7.73;;
21876;SDS011;11103;43.788;23.710;2022-09-09T12:36:21;10.43;;;7.17;;
21876;SDS011;11103;43.788;23.710;2022-09-09T12:38:53;12.37;;;7.63;;
21876;SDS011;11103;43.788;23.710;2022-09-09T12:41:26;12.80;;;8.00;;
21876;SDS011;11103;43.788;23.710;2022-09-09T12:44:03;18.63;;;8.93;;
21876;SDS011;11103;43.788;23.710;2022-09-09T12:46:32;13.80;;;8.50;;
21876;SDS011;11103;43.788;23.710;2022-09-09T12:52:04;11.87;;;8.37;;
21876;SDS011;11103;43.788;23.710;2022-09-09T12:54:44;11.00;;;8.77;;
21876;SDS011;11103;43.788;23.710;2022-09-09T12:57:12;11.73;;;9.07;;
21876;SDS011;11103;43.788;23.710;2022-09-09T12:59:43;13.97;;;8.63;;
21876;SDS011;11103;43.788;23.710;2022-09-09T13:02:17;11.33;;;8.17;;
21876;SDS011;11103;43.788;23.710;2022-09-09T13:04:44;13.77;;;8.70;;
21876;SDS011;11103;43.788;23.710;2022-09-09T13:07:13;11.57;;;7.93;;
21876;SDS011;11103;43.788;23.710;2022-09-09T13:09:41;29.10;;;9.63;;
21876;SDS011;11103;43.788;23.710;2022-09-09T13:12:13;16.97;;;9.60;;
21876;SDS011;11103;43.788;23.710;2022-09-09T13:14:43;17.33;;;9.27;;
21876;SDS011;11103;43.788;23.710;2022-09-09T13:17:21;12.17;;;9.40;;
21876;SDS011;11103;43.788;23.710;2022-09-09T13:19:53;13.17;;;9.60;;
21876;SDS011;11103;43.788;23.710;2022-09-09T13:22:29;14.77;;;9.90;;
21876;SDS011;11103;43.788;23.710;2022-09-09T13:25:13;14.80;;;11.23;;
21876;SDS011;11103;43.788;23.710;2022-09-09T13:33:39;21.67;;;10.40;;
21876;SDS011;11103;43.788;23.710;2022-09-09T13:35:54;12.77;;;8.90;;
21876;SDS011;11103;43.788;23.710;2022-09-09T13:38:21;12.87;;;8.67;;
21876;SDS011;11103;43.788;23.710;2022-09-09T13:40:54;13.80;;;8.40;;
21876;SDS011;11103;43.788;23.710;2022-09-09T13:43:22;10.80;;;8.37;;
21876;SDS011;11103;43.788;23.710;2022-09-09T13:45:53;12.77;;;8.43;;
21876;SDS011;11103;43.788;23.710;2022-09-09T13:48:21;16.03;;;9.27;;
21876;SDS011;11103;43.788;23.710;2022-09-09T13:51:04;11.67;;;8.40;;
21876;SDS011;11103;43.788;23.710;2022-09-09T13:53:30;13.83;;;8.37;;
21876;SDS011;11103;43.788;23.710;2022-09-09T13:55:56;12.97;;;9.07;;
21876;SDS011;11103;43.788;23.710;2022-09-09T13:58:23;13.63;;;8.93;;
21876;SDS011;11103;43.788;23.710;2022-09-09T14:00:50;14.23;;;8.73;;
21876;SDS011;11103;43.788;23.710;2022-09-09T14:03:17;14.47;;;8.57;;
21876;SDS011;11103;43.788;23.710;2022-09-09T14:05:43;12.53;;;8.23;;
21876;SDS011;11103;43.788;23.710;2022-09-09T14:08:11;10.70;;;7.70;;
21876;SDS011;11103;43.788;23.710;2022-09-09T14:10:44;16.60;;;7.97;;
21876;SDS011;11103;43.788;23.710;2022-09-09T14:13:10;11.83;;;7.50;;
21876;SDS011;11103;43.788;23.710;2022-09-09T14:15:37;15.03;;;7.60;;
21876;SDS011;11103;43.788;23.710;2022-09-09T14:18:03;18.73;;;8.93;;
21876;SDS011;11103;43.788;23.710;2022-09-09T14:20:29;15.30;;;9.00;;
21876;SDS011;11103;43.788;23.710;2022-09-09T14:22:55;12.73;;;8.60;;
21876;SDS011;11103;43.788;23.710;2022-09-09T14:25:22;10.43;;;7.10;;
21876;SDS011;11103;43.788;23.710;2022-09-09T14:30:16;16.33;;;7.87;;
21876;SDS011;11103;43.788;23.710;2022-09-09T14:32:42;14.00;;;7.30;;
21876;SDS011;11103;43.788;23.710;2022-09-09T14:35:07;14.53;;;8.33;;
21876;SDS011;11103;43.788;23.710;2022-09-09T14:37:33;16.67;;;8.00;;
21876;SDS011;11103;43.788;23.710;2022-09-09T14:39:58;21.37;;;8.67;;
21876;SDS011;11103;43.788;23.710;2022-09-09T14:42:24;13.23;;;8.20;;
21876;SDS011;11103;43.788;23.710;2022-09-09T14:44:49;15.33;;;7.27;;
21876;SDS011;11103;43.788;23.710;2022-09-09T14:47:15;10.07;;;7.50;;
21876;SDS011;11103;43.788;23.710;2022-09-09T14:49:40;14.63;;;6.93;;
21876;SDS011;11103;43.788;23.710;2022-09-09T14:52:06;16.27;;;7.37;;
21876;SDS011;11103;43.788;23.710;2022-09-09T14:54:32;13.83;;;8.00;;
21876;SDS011;11103;43.788;23.710;2022-09-09T14:56:58;14.77;;;7.50;;
21876;SDS011;11103;43.788;23.710;2022-09-09T14:59:24;11.27;;;8.03;;
21876;SDS011;11103;43.788;23.710;2022-09-09T15:01:52;14.50;;;7.27;;
21876;SDS011;11103;43.788;23.710;2022-09-09T15:04:18;13.03;;;7.60;;
21876;SDS011;11103;43.788;23.710;2022-09-09T15:06:46;14.53;;;7.30;;
21876;SDS011;11103;43.788;23.710;2022-09-09T15:09:13;18.23;;;8.70;;
21876;SDS011;11103;43.788;23.710;2022-09-09T15:11:39;17.63;;;7.70;;
21876;SDS011;11103;43.788;23.710;2022-09-09T15:14:05;17.13;;;7.27;;
21876;SDS011;11103;43.788;23.710;2022-09-09T15:16:32;9.20;;;7.87;;
21876;SDS011;11103;43.788;23.710;2022-09-09T15:21:33;10.70;;;7.27;;
21876;SDS011;11103;43.788;23.710;2022-09-09T15:24:00;14.00;;;8.63;;
21876;SDS011;11103;43.788;23.710;2022-09-09T15:26:26;26.23;;;7.57;;
21876;SDS011;11103;43.788;23.710;2022-09-09T15:28:52;16.93;;;7.77;;
21876;SDS011;11103;43.788;23.710;2022-09-09T15:31:19;14.35;;;7.75;;
21876;SDS011;11103;43.788;23.710;2022-09-09T15:33:53;18.60;;;8.30;;
21876;SDS011;11103;43.788;23.710;2022-09-09T15:36:26;14.53;;;7.83;;
21876;SDS011;11103;43.788;23.710;2022-09-09T15:38:57;15.90;;;8.30;;
21876;SDS011;11103;43.788;23.710;2022-09-09T15:41:23;15.20;;;8.20;;
21876;SDS011;11103;43.788;23.710;2022-09-09T15:43:50;13.60;;;8.13;;
21876;SDS011;11103;43.788;23.710;2022-09-09T15:48:43;11.10;;;8.43;;
21876;SDS011;11103;43.788;23.710;2022-09-09T15:51:13;19.80;;;10.27;;
21876;SDS011;11103;43.788;23.710;2022-09-09T15:53:39;15.77;;;10.10;;
21876;SDS011;11103;43.788;23.710;2022-09-09T15:56:05;12.67;;;10.30;;
21876;SDS011;11103;43.788;23.710;2022-09-09T15:58:34;13.90;;;10.10;;
21876;SDS011;11103;43.788;23.710;2022-09-09T16:01:04;18.70;;;11.70;;
21876;SDS011;11103;43.788;23.710;2022-09-09T16:03:35;16.03;;;10.13;;
21876;SDS011;11103;43.788;23.710;2022-09-09T16:06:02;17.13;;;9.90;;
21876;SDS011;11103;43.788;23.710;2022-09-09T16:08:36;19.13;;;10.87;;
21876;SDS011;11103;43.788;23.710;2022-09-09T16:11:07;24.63;;;11.77;;
21876;SDS011;11103;43.788;23.710;2022-09-09T16:13:39;26.90;;;11.37;;
21876;SDS011;11103;43.788;23.710;2022-09-09T16:16:05;24.20;;;12.13;;
21876;SDS011;11103;43.788;23.710;2022-09-09T16:18:35;21.13;;;10.57;;
21876;SDS011;11103;43.788;23.710;2022-09-09T16:21:02;23.83;;;11.63;;
21876;SDS011;11103;43.788;23.710;2022-09-09T16:23:30;17.10;;;10.63;;
21876;SDS011;11103;43.788;23.710;2022-09-09T16:26:04;17.70;;;10.40;;
21876;SDS011;11103;43.788;23.710;2022-09-09T16:28:30;20.83;;;13.30;;
21876;SDS011;11103;43.788;23.710;2022-09-09T16:30:56;19.13;;;13.60;;
21876;SDS011;11103;43.788;23.710;2022-09-09T16:33:23;15.00;;;11.80;;
21876;SDS011;11103;43.788;23.710;2022-09-09T16:35:48;16.30;;;12.47;;
21876;SDS011;11103;43.788;23.710;2022-09-09T16:38:14;21.50;;;13.37;;
21876;SDS011;11103;43.788;23.710;2022-09-09T16:40:40;19.07;;;12.10;;
21876;SDS011;11103;43.788;23.710;2022-09-09T16:43:08;19.80;;;12.93;;
21876;SDS011;11103;43.788;23.710;2022-09-09T16:45:44;18.97;;;12.50;;
21876;SDS011;11103;43.788;23.710;2022-09-09T16:48:10;14.83;;;12.00;;
21876;SDS011;11103;43.788;23.710;2022-09-09T16:50:36;18.17;;;13.00;;
21876;SDS011;11103;43.788;23.710;2022-09-09T16:53:03;20.10;;;13.63;;
21876;SDS011;11103;43.788;23.710;2022-09-09T16:55:31;20.57;;;13.17;;
21876;SDS011;11103;43.788;23.710;2022-09-09T16:57:58;23.83;;;13.80;;
21876;SDS011;11103;43.788;23.710;2022-09-09T17:00:23;21.43;;;13.00;;
21876;SDS011;11103;43.788;23.710;2022-09-09T17:02:49;26.07;;;13.40;;
21876;SDS011;11103;43.788;23.710;2022-09-09T17:07:50;20.50;;;13.67;;
21876;SDS011;11103;43.788;23.710;2022-09-09T17:10:16;19.03;;;12.73;;
21876;SDS011;11103;43.788;23.710;2022-09-09T17:12:43;24.23;;;13.03;;
21876;SDS011;11103;43.788;23.710;2022-09-09T17:15:09;28.53;;;17.33;;
21876;SDS011;11103;43.788;23.710;2022-09-09T17:17:35;21.33;;;13.63;;
21876;SDS011;11103;43.788;23.710;2022-09-09T17:20:02;24.70;;;13.87;;